Time;durP1;ratioP1;P1;durP2;ratioP2;P2;SDS_P1;SDS_P2;PMS_P1;PMS_P2;Temp;Humidity;BMP_temperature;BMP_pressure;BME280_temperature;BME280_humidity;BME280_pressure;Samples;Min_cycle;Max_cycle;Signal;HPM_P1;HPM_P2
2023/01/18 00:00:33;;;;;;;6.47;4.82;;;3.30;79.10;;;;;;5084860;28;20020;-82
2023/01/18 00:02:59;;;;;;;7.30;5.75;;;3.30;79.10;;;;;;5085683;28;20028;-82
2023/01/18 00:05:25;;;;;;;6.80;5.32;;;3.30;79.10;;;;;;5082186;28;20688;-82
2023/01/18 00:07:52;;;;;;;6.80;5.40;;;3.30;79.10;;;;;;5061931;28;20032;-81
2023/01/18 00:10:18;;;;;;;6.25;4.97;;;3.20;79.00;;;;;;5041819;28;20469;-82
2023/01/18 00:12:44;;;;;;;7.60;5.22;;;3.20;79.10;;;;;;5075094;28;20468;-82
2023/01/18 00:15:10;;;;;;;7.07;5.43;;;3.20;79.00;;;;;;5078559;28;20024;-81
2023/01/18 00:17:46;;;;;;;6.93;5.25;;;3.20;79.10;;;;;;5065306;28;20063;-82
2023/01/18 00:20:16;;;;;;;7.03;5.78;;;3.20;79.00;;;;;;5079323;28;20047;-82
2023/01/18 00:22:42;;;;;;;6.18;4.78;;;3.20;79.00;;;;;;5082182;28;20023;-82
2023/01/18 00:25:09;;;;;;;6.32;5.35;;;3.20;79.00;;;;;;5079067;28;20031;-82
2023/01/18 00:27:43;;;;;;;6.55;5.43;;;3.20;79.00;;;;;;5080962;28;20024;-81
2023/01/18 00:30:09;;;;;;;7.45;5.72;;;3.20;79.00;;;;;;5083546;28;20069;-82
2023/01/18 00:32:36;;;;;;;5.70;4.68;;;3.10;78.90;;;;;;5093653;28;20495;-82
2023/01/18 00:35:06;;;;;;;6.43;4.90;;;3.10;79.00;;;;;;5063834;28;20048;-83
2023/01/18 00:37:32;;;;;;;6.70;5.28;;;3.10;79.00;;;;;;5077501;28;20157;-82
2023/01/18 00:39:58;;;;;;;6.80;5.05;;;3.10;78.90;;;;;;5058750;28;20107;-81
2023/01/18 00:45:09;;;;;;;6.40;5.30;;;3.10;78.90;;;;;;5088205;28;20036;-81
2023/01/18 00:47:34;;;;;;;5.65;4.70;;;3.10;78.90;;;;;;5084417;28;20036;-82
2023/01/18 00:50:00;;;;;;;6.55;4.85;;;3.10;78.90;;;;;;5082878;28;20432;-82
2023/01/18 00:52:26;;;;;;;6.70;5.03;;;3.00;78.90;;;;;;5094637;28;20020;-80
2023/01/18 00:54:52;;;;;;;6.22;5.13;;;3.10;78.90;;;;;;5094224;28;20039;-81
2023/01/18 00:57:17;;;;;;;6.30;4.72;;;3.00;78.90;;;;;;5060665;28;20036;-82
2023/01/18 00:59:45;;;;;;;7.30;5.22;;;3.10;78.90;;;;;;5059181;28;20056;-82
2023/01/18 01:02:11;;;;;;;6.82;5.13;;;3.00;78.80;;;;;;5059065;28;20047;-81
2023/01/18 01:07:21;;;;;;;6.88;5.13;;;3.00;78.80;;;;;;5101625;28;20035;-82
2023/01/18 01:09:47;;;;;;;6.13;5.10;;;3.00;78.80;;;;;;5040073;28;20028;-82
2023/01/18 01:26:07;;;;;;;7.13;5.15;;;2.90;78.80;;;;;;5075140;28;20456;-83
2023/01/18 01:28:37;;;;;;;6.35;5.00;;;2.90;78.80;;;;;;5083258;28;20042;-82
2023/01/18 01:31:06;;;;;;;6.78;5.10;;;2.90;78.80;;;;;;5077034;28;20047;-82
2023/01/18 01:33:33;;;;;;;6.18;4.95;;;2.90;78.80;;;;;;5061269;28;20032;-82
2023/01/18 01:36:02;;;;;;;6.53;5.05;;;2.90;78.80;;;;;;5087697;28;20036;-82
2023/01/18 01:38:28;;;;;;;6.00;4.93;;;2.90;78.80;;;;;;5065286;28;20066;-82
2023/01/18 01:41:07;;;;;;;6.82;5.22;;;2.90;78.80;;;;;;5076950;28;20048;-82
2023/01/18 01:43:45;;;;;;;7.00;5.43;;;2.90;78.80;;;;;;5078569;28;20044;-81
2023/01/18 01:46:43;;;;;;;7.53;5.65;;;2.90;78.70;;;;;;5079541;28;20028;-82
2023/01/18 01:49:20;;;;;;;6.18;5.35;;;2.90;78.70;;;;;;5078067;28;20028;-81
2023/01/18 01:51:50;;;;;;;6.72;4.95;;;2.90;78.70;;;;;;5090827;28;20111;-82
2023/01/18 01:54:23;;;;;;;6.65;5.05;;;2.90;79.30;;;;;;5092443;28;20107;-82
2023/01/18 01:56:55;;;;;;;6.47;5.57;;;2.90;78.70;;;;;;5091954;28;20480;-81
2023/01/18 01:59:22;;;;;;;6.38;5.15;;;2.90;78.70;;;;;;5078969;28;20035;-82
2023/01/18 02:01:48;;;;;;;7.43;5.30;;;2.90;78.70;;;;;;5044095;28;20518;-82
2023/01/18 02:04:14;;;;;;;6.60;5.25;;;2.80;78.60;;;;;;5075206;28;20039;-82
2023/01/18 02:06:40;;;;;;;6.85;5.32;;;2.90;79.30;;;;;;5091493;28;20549;-83
2023/01/18 02:09:21;;;;;;;6.43;5.13;;;2.90;78.70;;;;;;5092557;28;20110;-82
2023/01/18 02:11:52;;;;;;;7.22;5.47;;;2.90;78.70;;;;;;5084702;28;20078;-82
2023/01/18 02:14:21;;;;;;;6.90;5.47;;;2.90;78.70;;;;;;5081048;28;20103;-82
2023/01/18 02:17:19;;;;;;;6.53;5.18;;;2.90;78.70;;;;;;5061010;28;20037;-82
2023/01/18 02:19:53;;;;;;;6.70;5.30;;;2.90;78.70;;;;;;5089240;28;20487;-83
2023/01/18 02:22:31;;;;;;;7.10;5.65;;;2.90;78.70;;;;;;5067689;28;20042;-82
2023/01/18 02:25:09;;;;;;;6.57;4.97;;;2.90;78.70;;;;;;5086550;28;20464;-82
2023/01/18 02:27:47;;;;;;;7.15;5.15;;;2.80;78.60;;;;;;5089789;28;20036;-82
2023/01/18 02:30:20;;;;;;;6.18;4.93;;;2.80;78.60;;;;;;5075291;28;20346;-82
2023/01/18 02:32:54;;;;;;;7.32;5.60;;;2.80;78.60;;;;;;5099590;28;20045;-81
2023/01/18 02:35:32;;;;;;;8.57;5.28;;;2.80;78.60;;;;;;5075182;28;20469;-81
2023/01/18 02:38:18;;;;;;;7.68;5.45;;;2.80;78.70;;;;;;5061857;28;20024;-81
2023/01/18 02:41:00;;;;;;;7.10;5.38;;;2.80;78.70;;;;;;5071841;28;20027;-82
2023/01/18 02:46:30;;;;;;;5.97;4.78;;;2.80;78.60;;;;;;5049170;28;20032;-82
2023/01/18 02:49:21;;;;;;;7.05;5.25;;;2.80;78.70;;;;;;5067240;28;20031;-82
2023/01/18 02:51:46;;;;;;;8.15;5.65;;;2.80;78.70;;;;;;5071953;28;20034;-82
2023/01/18 02:54:22;;;;;;;7.40;5.10;;;2.70;78.70;;;;;;5083085;28;20028;-82
2023/01/18 02:56:57;;;;;;;6.30;4.78;;;2.80;78.70;;;;;;5068474;28;20032;-82
2023/01/18 02:59:37;;;;;;;6.88;5.50;;;2.80;78.70;;;;;;5076477;28;20027;-82
2023/01/18 03:02:12;;;;;;;6.35;4.88;;;2.80;78.70;;;;;;5084920;28;20430;-82
2023/01/18 03:04:54;;;;;;;7.28;5.47;;;2.80;78.70;;;;;;5077425;28;20051;-81
2023/01/18 03:07:22;;;;;;;7.38;5.68;;;2.80;78.70;;;;;;5092412;28;20024;-82
2023/01/18 03:09:48;;;;;;;7.80;5.88;;;2.70;78.60;;;;;;5072014;28;20070;-81
2023/01/18 03:12:22;;;;;;;6.85;5.63;;;2.70;78.70;;;;;;5062733;28;20035;-83
2023/01/18 03:14:51;;;;;;;6.72;4.95;;;2.70;78.70;;;;;;5073775;28;20035;-82
2023/01/18 03:17:32;;;;;;;7.63;5.38;;;2.70;78.70;;;;;;5079206;28;20478;-81
2023/01/18 03:20:07;;;;;;;7.00;5.78;;;2.70;78.70;;;;;;5073266;28;20024;-81
2023/01/18 03:25:58;;;;;;;6.65;5.00;;;2.60;78.60;;;;;;5089179;28;20039;-81
2023/01/18 03:34:51;;;;;;;7.53;5.72;;;2.70;78.70;;;;;;5084940;28;20385;-80
2023/01/18 03:37:25;;;;;;;7.65;5.88;;;2.60;78.60;;;;;;5095127;28;20438;-82
2023/01/18 03:40:20;;;;;;;7.75;5.60;;;2.60;78.70;;;;;;5081712;28;20486;-82
2023/01/18 03:42:51;;;;;;;8.73;5.97;;;2.60;78.70;;;;;;5080722;28;20027;-82
2023/01/18 03:45:28;;;;;;;6.40;5.00;;;2.60;78.60;;;;;;5092836;28;20020;-82
2023/01/18 03:47:54;;;;;;;7.43;5.60;;;2.60;78.60;;;;;;5086847;28;20028;-82
2023/01/18 03:50:27;;;;;;;6.88;5.43;;;2.60;78.60;;;;;;5072999;28;20500;-81
2023/01/18 03:52:57;;;;;;;6.72;5.45;;;2.60;78.60;;;;;;5075286;28;20468;-81
2023/01/18 03:55:33;;;;;;;6.43;5.18;;;2.60;78.60;;;;;;5085871;28;20039;-82
2023/01/18 03:58:03;;;;;;;6.65;5.45;;;2.60;78.60;;;;;;5058449;28;20048;-82
2023/01/18 04:00:30;;;;;;;7.53;5.25;;;2.60;78.60;;;;;;5077877;28;20024;-82
2023/01/18 04:02:56;;;;;;;7.68;5.70;;;2.60;78.60;;;;;;5065618;28;20025;-81
2023/01/18 04:05:23;;;;;;;6.25;5.20;;;2.50;78.50;;;;;;5055724;28;20043;-82
2023/01/18 04:07:49;;;;;;;7.72;5.55;;;2.60;78.60;;;;;;5073739;28;20111;-82
2023/01/18 04:10:16;;;;;;;7.05;5.82;;;2.60;78.60;;;;;;5060879;28;20043;-81
2023/01/18 04:12:41;;;;;;;6.60;4.90;;;2.50;78.60;;;;;;5089517;28;20028;-82
2023/01/18 04:15:08;;;;;;;6.40;4.95;;;2.50;78.50;;;;;;5073379;28;20047;-81
2023/01/18 04:17:33;;;;;;;7.50;5.97;;;2.50;78.60;;;;;;5040060;28;20476;-82
2023/01/18 04:19:59;;;;;;;6.68;5.50;;;2.50;78.50;;;;;;5040631;28;20058;-82
2023/01/18 04:22:25;;;;;;;7.80;5.82;;;2.50;78.50;;;;;;5059758;28;20075;-82
2023/01/18 04:24:50;;;;;;;7.05;5.30;;;2.50;78.50;;;;;;5042840;28;20541;-82
2023/01/18 04:27:16;;;;;;;6.45;5.50;;;2.50;78.50;;;;;;5080069;28;20032;-81
2023/01/18 04:29:42;;;;;;;6.70;5.50;;;2.50;78.50;;;;;;5061409;28;20069;-82
2023/01/18 04:32:08;;;;;;;6.60;5.35;;;2.40;78.40;;;;;;5081855;28;20142;-82
2023/01/18 04:34:33;;;;;;;7.10;5.43;;;2.40;78.40;;;;;;5073368;28;20063;-81
2023/01/18 04:36:59;;;;;;;7.82;5.35;;;2.40;78.40;;;;;;5090831;28;20085;-82
2023/01/18 04:39:25;;;;;;;7.07;5.40;;;2.40;78.30;;;;;;5062297;28;20032;-82
2023/01/18 04:41:51;;;;;;;6.05;5.18;;;2.40;78.30;;;;;;5089963;28;20032;-82
2023/01/18 04:44:17;;;;;;;6.78;5.00;;;2.40;78.30;;;;;;5081906;28;20085;-82
2023/01/18 04:46:42;;;;;;;6.18;5.32;;;2.40;78.30;;;;;;5055005;28;20027;-82
2023/01/18 04:49:12;;;;;;;7.03;5.65;;;2.40;78.30;;;;;;5074745;28;20092;-81
2023/01/18 04:51:38;;;;;;;6.38;5.10;;;2.40;78.20;;;;;;5076732;28;20036;-81
2023/01/18 04:54:04;;;;;;;7.88;5.18;;;2.40;78.20;;;;;;5080626;28;20028;-81
2023/01/18 04:56:30;;;;;;;6.80;5.60;;;2.40;78.20;;;;;;5060331;28;20370;-82
2023/01/18 04:58:55;;;;;;;5.95;5.00;;;2.40;78.20;;;;;;5059880;28;20043;-82
2023/01/18 05:01:22;;;;;;;6.90;5.28;;;2.40;78.20;;;;;;5085409;28;20056;-81
2023/01/18 05:03:47;;;;;;;6.45;5.28;;;2.40;78.10;;;;;;5090814;28;20024;-82
2023/01/18 05:06:15;;;;;;;6.47;5.03;;;2.40;78.10;;;;;;5079488;28;20020;-82
2023/01/18 05:08:41;;;;;;;7.13;5.40;;;2.40;78.20;;;;;;5084047;28;20028;-82
2023/01/18 05:11:10;;;;;;;6.30;4.68;;;2.40;78.20;;;;;;5086425;28;20059;-82
2023/01/18 05:13:36;;;;;;;7.18;5.53;;;2.40;78.10;;;;;;5071239;28;20051;-82
2023/01/18 05:16:02;;;;;;;6.63;5.57;;;2.30;78.10;;;;;;5068321;28;20094;-82
2023/01/18 05:18:28;;;;;;;7.00;5.72;;;2.40;78.20;;;;;;5075751;28;20020;-82
2023/01/18 05:20:54;;;;;;;7.22;5.30;;;2.30;78.10;;;;;;5091981;28;20048;-82
2023/01/18 05:23:21;;;;;;;7.32;5.15;;;2.30;78.10;;;;;;5068273;28;20024;-81
2023/01/18 05:25:52;;;;;;;6.72;5.20;;;2.40;78.10;;;;;;5094411;28;20020;-82
2023/01/18 05:28:18;;;;;;;7.28;5.38;;;2.40;78.10;;;;;;5093349;28;20036;-82
2023/01/18 05:30:43;;;;;;;6.18;4.78;;;2.30;78.00;;;;;;5082107;28;20039;-82
2023/01/18 05:33:09;;;;;;;6.68;5.38;;;2.30;78.10;;;;;;5061687;28;20378;-82
2023/01/18 05:35:35;;;;;;;6.55;4.85;;;2.30;78.10;;;;;;5085701;28;20376;-82
2023/01/18 05:38:01;;;;;;;5.90;4.97;;;2.30;78.10;;;;;;5079004;28;20021;-81
2023/01/18 05:40:27;;;;;;;5.88;4.88;;;2.30;78.10;;;;;;5051491;28;20024;-81
2023/01/18 05:42:52;;;;;;;7.43;5.57;;;2.30;78.00;;;;;;5075845;28;20032;-82
2023/01/18 05:45:19;;;;;;;6.10;4.88;;;2.30;78.00;;;;;;5057765;28;20473;-82
2023/01/18 05:47:45;;;;;;;6.50;5.13;;;2.30;78.00;;;;;;5092554;28;20039;-82
2023/01/18 05:50:11;;;;;;;6.50;5.03;;;2.30;78.00;;;;;;5056827;28;20449;-81
2023/01/18 05:52:37;;;;;;;6.40;5.18;;;2.30;78.10;;;;;;5075723;28;20028;-83
2023/01/18 05:55:04;;;;;;;7.15;5.35;;;2.30;78.10;;;;;;5070927;28;20422;-82
2023/01/18 05:57:30;;;;;;;7.07;5.30;;;2.20;78.10;;;;;;5076623;28;20477;-82
2023/01/18 05:59:56;;;;;;;6.20;5.60;;;2.20;78.90;;;;;;5075622;28;20107;-84
2023/01/18 06:02:23;;;;;;;5.38;4.55;;;2.20;78.00;;;;;;5058423;28;20127;-83
2023/01/18 06:04:49;;;;;;;6.20;5.20;;;2.20;78.00;;;;;;5073668;28;20455;-82
2023/01/18 06:07:15;;;;;;;5.43;4.57;;;2.20;78.10;;;;;;5080670;28;20028;-82
2023/01/18 06:09:41;;;;;;;6.50;4.85;;;2.20;78.00;;;;;;5080166;28;20046;-82
2023/01/18 06:12:07;;;;;;;6.95;5.25;;;2.20;78.00;;;;;;5059939;28;20666;-82
2023/01/18 06:14:33;;;;;;;6.13;4.93;;;2.20;78.00;;;;;;5062832;28;20031;-82
2023/01/18 06:17:00;;;;;;;5.93;4.97;;;2.20;78.00;;;;;;5074597;28;20052;-82
2023/01/18 06:19:26;;;;;;;7.18;4.95;;;2.20;78.10;;;;;;5062516;28;20020;-82
2023/01/18 06:21:53;;;;;;;6.97;4.95;;;2.20;78.00;;;;;;5091419;28;20060;-83
2023/01/18 06:24:19;;;;;;;7.13;5.00;;;2.20;78.00;;;;;;5067945;28;20066;-80
2023/01/18 06:26:44;;;;;;;7.20;5.80;;;2.20;78.00;;;;;;5093984;28;20063;-83
2023/01/18 06:29:10;;;;;;;6.22;4.88;;;2.20;78.00;;;;;;5077572;28;20024;-82
2023/01/18 06:31:36;;;;;;;5.85;4.68;;;2.20;78.00;;;;;;5073284;28;20020;-82
2023/01/18 06:34:08;;;;;;;6.88;4.80;;;2.20;78.00;;;;;;5038286;28;20063;-84
2023/01/18 06:36:36;;;;;;;5.85;4.85;;;2.20;78.10;;;;;;5073021;28;20035;-83
2023/01/18 06:39:02;;;;;;;6.00;4.75;;;2.20;78.10;;;;;;5077091;28;20396;-83
2023/01/18 06:41:28;;;;;;;6.72;5.32;;;2.20;78.00;;;;;;5072423;28;20108;-83
2023/01/18 06:43:54;;;;;;;6.03;4.80;;;2.10;78.00;;;;;;5058403;28;20520;-82
2023/01/18 06:46:20;;;;;;;6.38;5.00;;;2.20;78.10;;;;;;5072793;28;20032;-81
2023/01/18 06:48:46;;;;;;;6.45;4.78;;;2.20;78.00;;;;;;5091374;28;20516;-82
2023/01/18 06:51:12;;;;;;;5.95;5.22;;;2.20;78.00;;;;;;5063082;28;20047;-82
2023/01/18 06:53:38;;;;;;;6.97;4.88;;;2.10;77.90;;;;;;5077896;28;20024;-80
2023/01/18 06:56:09;;;;;;;6.40;4.90;;;2.10;77.90;;;;;;5056884;28;20071;-80
2023/01/18 06:58:35;;;;;;;6.95;5.28;;;2.20;78.00;;;;;;5079054;28;20032;-81
2023/01/18 07:01:02;;;;;;;6.68;5.53;;;2.10;78.00;;;;;;5076693;28;20122;-82
2023/01/18 07:03:29;;;;;;;6.25;4.90;;;2.10;78.00;;;;;;5077373;28;20036;-81
2023/01/18 07:05:57;;;;;;;6.78;4.70;;;2.10;78.00;;;;;;5074083;28;20492;-80
2023/01/18 07:08:23;;;;;;;5.28;4.68;;;2.10;78.00;;;;;;5094710;28;20035;-81
2023/01/18 07:10:51;;;;;;;6.78;5.13;;;2.10;78.00;;;;;;5089039;28;20043;-80
2023/01/18 07:13:17;;;;;;;6.25;4.88;;;2.10;78.10;;;;;;5092839;28;20036;-80
2023/01/18 07:15:43;;;;;;;5.97;4.55;;;2.10;78.10;;;;;;5062892;28;20039;-79
2023/01/18 07:18:09;;;;;;;6.13;4.68;;;2.10;78.10;;;;;;5055873;28;20473;-79
2023/01/18 07:20:35;;;;;;;6.40;4.88;;;2.10;78.00;;;;;;5090390;28;20036;-82
2023/01/18 07:23:03;;;;;;;5.50;4.60;;;2.10;78.00;;;;;;5072399;28;20380;-82
2023/01/18 07:25:28;;;;;;;6.43;5.07;;;2.10;78.00;;;;;;5075806;28;20036;-82
2023/01/18 07:27:56;;;;;;;7.50;5.10;;;2.10;78.00;;;;;;5078904;28;20051;-81
2023/01/18 07:30:22;;;;;;;6.43;5.00;;;2.10;78.00;;;;;;5090043;28;20023;-82
2023/01/18 07:32:50;;;;;;;6.05;4.72;;;2.00;77.90;;;;;;5080000;28;20028;-80
2023/01/18 07:35:18;;;;;;;5.28;4.78;;;2.10;78.00;;;;;;5070914;28;20115;-80
2023/01/18 07:37:54;;;;;;;6.75;5.05;;;2.00;78.00;;;;;;5059467;28;20028;-82
2023/01/18 07:40:20;;;;;;;6.32;5.25;;;2.00;78.00;;;;;;5071024;28;20028;-82
2023/01/18 07:42:47;;;;;;;6.93;5.57;;;2.00;78.00;;;;;;5074391;28;20495;-83
2023/01/18 07:45:13;;;;;;;6.13;4.88;;;2.00;78.00;;;;;;5080463;28;20031;-82
2023/01/18 07:47:40;;;;;;;6.22;4.70;;;2.00;78.70;;;;;;5076686;28;20037;-81
2023/01/18 07:50:06;;;;;;;6.18;5.30;;;2.00;78.00;;;;;;5058516;28;20028;-82
2023/01/18 07:52:32;;;;;;;6.72;5.30;;;2.00;78.00;;;;;;5058101;28;20028;-83
2023/01/18 07:54:58;;;;;;;5.93;4.95;;;2.00;78.00;;;;;;5073500;28;20035;-82
2023/01/18 07:57:24;;;;;;;6.20;4.78;;;2.00;78.00;;;;;;5100793;28;20373;-82
2023/01/18 07:59:50;;;;;;;7.63;5.63;;;2.00;78.00;;;;;;5079781;28;20084;-83
2023/01/18 08:02:16;;;;;;;6.78;5.55;;;2.00;78.00;;;;;;5091307;28;20664;-80
2023/01/18 08:04:42;;;;;;;6.03;5.15;;;1.90;78.00;;;;;;5060534;28;20032;-82
2023/01/18 08:07:08;;;;;;;6.13;5.22;;;1.90;78.00;;;;;;5075230;28;20524;-82
2023/01/18 08:09:34;;;;;;;5.80;5.00;;;1.90;78.00;;;;;;5057337;28;20652;-82
2023/01/18 08:12:00;;;;;;;7.00;5.40;;;1.90;78.00;;;;;;5052920;28;20032;-82
2023/01/18 08:14:26;;;;;;;6.88;5.22;;;2.00;78.10;;;;;;5069396;28;20038;-81
2023/01/18 08:16:52;;;;;;;7.28;5.18;;;1.90;78.00;;;;;;5087940;28;20119;-82
2023/01/18 08:19:18;;;;;;;6.57;5.07;;;1.90;78.00;;;;;;5065159;28;20536;-82
2023/01/18 08:21:44;;;;;;;5.90;4.82;;;1.90;78.00;;;;;;5077127;28;20052;-82
2023/01/18 08:24:11;;;;;;;7.00;5.10;;;1.90;78.00;;;;;;5052294;28;20036;-82
2023/01/18 08:26:37;;;;;;;6.65;5.43;;;1.90;78.00;;;;;;5081938;28;20056;-82
2023/01/18 08:29:03;;;;;;;6.43;4.78;;;1.90;78.00;;;;;;5068708;28;20059;-81
2023/01/18 08:31:29;;;;;;;6.43;4.80;;;1.90;78.00;;;;;;5065394;28;20036;-82
2023/01/18 08:33:54;;;;;;;6.15;5.00;;;1.90;78.00;;;;;;5079085;28;20047;-82
2023/01/18 08:36:24;;;;;;;7.68;5.57;;;1.90;78.00;;;;;;5071246;28;20388;-82
2023/01/18 08:38:55;;;;;;;6.65;5.07;;;1.90;78.00;;;;;;5062978;28;20032;-82
2023/01/18 08:41:26;;;;;;;6.22;5.00;;;1.90;78.00;;;;;;5060421;28;20105;-82
2023/01/18 08:43:53;;;;;;;6.70;5.05;;;1.90;78.10;;;;;;5082827;28;20036;-82
2023/01/18 08:46:20;;;;;;;6.30;4.95;;;1.90;78.00;;;;;;5097772;28;20070;-82
2023/01/18 08:48:54;;;;;;;5.55;4.60;;;1.90;78.00;;;;;;5092730;28;20040;-82
2023/01/18 08:51:21;;;;;;;7.35;5.22;;;1.90;78.10;;;;;;5102966;28;20042;-82
2023/01/18 08:53:53;;;;;;;8.10;5.40;;;1.90;78.00;;;;;;5071043;28;20035;-83
2023/01/18 08:56:19;;;;;;;8.32;5.28;;;1.90;78.10;;;;;;5085277;28;20067;-82
2023/01/18 08:58:46;;;;;;;7.72;5.10;;;1.90;78.10;;;;;;5080008;28;20485;-82
2023/01/18 09:01:12;;;;;;;6.65;5.38;;;1.90;78.00;;;;;;5084896;28;20020;-82
2023/01/18 09:03:37;;;;;;;6.90;5.25;;;1.90;78.10;;;;;;5079520;28;20032;-82
2023/01/18 09:06:07;;;;;;;6.60;5.53;;;1.80;78.00;;;;;;5089052;28;20023;-83
2023/01/18 09:08:33;;;;;;;6.00;4.97;;;1.80;78.00;;;;;;5085234;28;20165;-81
2023/01/18 09:11:04;;;;;;;6.22;4.82;;;1.90;78.10;;;;;;5080774;28;20082;-82
2023/01/18 09:13:31;;;;;;;6.43;4.85;;;1.90;78.00;;;;;;5076786;28;20186;-83
2023/01/18 09:16:05;;;;;;;7.18;5.57;;;1.90;78.10;;;;;;5077241;28;20040;-82
2023/01/18 09:18:30;;;;;;;5.82;4.65;;;1.90;78.10;;;;;;5083401;28;20081;-82
2023/01/18 09:20:57;;;;;;;6.80;5.25;;;1.90;78.00;;;;;;5067996;28;20048;-82
2023/01/18 09:23:23;;;;;;;6.90;5.32;;;1.90;78.00;;;;;;5063838;28;20366;-81
2023/01/18 09:26:03;;;;;;;7.38;5.70;;;1.90;78.00;;;;;;5062786;28;20443;-82
2023/01/18 09:28:29;;;;;;;7.90;5.70;;;2.00;78.20;;;;;;5075231;28;20024;-83
2023/01/18 09:31:00;;;;;;;6.63;5.13;;;1.90;78.00;;;;;;5081368;28;20127;-82
2023/01/18 09:33:25;;;;;;;7.30;5.70;;;1.90;78.10;;;;;;5061940;28;20031;-83
2023/01/18 09:35:51;;;;;;;5.85;4.82;;;2.00;78.10;;;;;;5077539;28;20043;-83
2023/01/18 09:38:17;;;;;;;7.07;5.70;;;2.00;78.10;;;;;;5059352;28;20033;-82
2023/01/18 09:40:44;;;;;;;6.78;5.00;;;2.00;78.10;;;;;;5076002;28;20033;-80
2023/01/18 09:43:31;;;;;;;6.70;5.03;;;2.00;78.10;;;;;;5065929;28;20115;-83
2023/01/18 09:45:58;;;;;;;7.32;5.55;;;2.00;78.10;;;;;;5092257;28;20032;-80
2023/01/18 09:48:36;;;;;;;6.85;5.40;;;2.10;78.10;;;;;;5058144;28;20024;-84
2023/01/18 09:51:19;;;;;;;8.13;5.47;;;2.10;78.10;;;;;;5079617;28;20050;-84
2023/01/18 09:54:28;;;;;;;7.80;5.80;;;2.10;78.10;;;;;;5082602;28;20035;-85
2023/01/18 09:57:18;;;;;;;6.95;5.22;;;2.10;78.10;;;;;;5064837;28;20127;-85
2023/01/18 10:00:00;;;;;;;6.90;5.55;;;2.10;78.00;;;;;;5069042;28;20074;-84
2023/01/18 10:02:37;;;;;;;6.78;4.93;;;2.20;78.10;;;;;;5066937;28;20020;-85
2023/01/18 10:05:32;;;;;;;6.25;4.95;;;2.20;78.10;;;;;;5080723;28;20478;-85
2023/01/18 10:08:12;;;;;;;7.38;5.20;;;2.20;78.10;;;;;;5087547;28;20285;-83
2023/01/18 10:10:48;;;;;;;7.20;5.55;;;2.30;78.10;;;;;;5095299;28;20095;-84
2023/01/18 10:13:40;;;;;;;6.97;5.25;;;2.30;78.10;;;;;;5083281;28;20024;-88
2023/01/18 10:16:13;;;;;;;6.18;5.32;;;2.30;78.20;;;;;;5075304;28;20097;-84
2023/01/18 10:18:47;;;;;;;6.10;4.72;;;2.30;78.20;;;;;;5096535;28;20129;-83
2023/01/18 10:21:30;;;;;;;6.90;5.60;;;2.30;78.20;;;;;;5076328;28;20047;-84
2023/01/18 10:24:15;;;;;;;6.07;4.80;;;2.40;78.30;;;;;;5079486;28;20032;-85
2023/01/18 10:26:40;;;;;;;5.78;4.38;;;2.40;78.20;;;;;;5082905;28;20048;-84
2023/01/18 10:29:19;;;;;;;6.28;5.15;;;2.40;78.20;;;;;;5073268;28;20067;-85
2023/01/18 10:32:02;;;;;;;6.35;5.25;;;2.40;78.90;;;;;;5084164;28;20059;-85
2023/01/18 10:34:33;;;;;;;6.25;5.38;;;2.40;78.30;;;;;;5082906;28;20097;-84
2023/01/18 10:37:34;;;;;;;6.82;5.35;;;2.50;78.30;;;;;;5076049;28;20040;-84
2023/01/18 10:40:06;;;;;;;6.82;5.03;;;2.50;78.40;;;;;;5062079;28;20024;-84
2023/01/18 10:42:46;;;;;;;6.80;5.20;;;2.60;78.30;;;;;;5075461;28;20031;-81
2023/01/18 10:45:24;;;;;;;6.82;5.32;;;2.60;78.40;;;;;;5074028;28;20020;-83
2023/01/18 10:47:52;;;;;;;6.32;4.90;;;2.60;78.40;;;;;;5092828;28;20023;-83
2023/01/18 10:50:36;;;;;;;6.07;4.78;;;2.60;78.40;;;;;;5079881;28;20024;-84
2023/01/18 10:53:26;;;;;;;6.30;4.80;;;2.60;78.50;;;;;;5093245;28;20028;-82
2023/01/18 10:56:00;;;;;;;6.93;5.07;;;2.70;78.50;;;;;;5080622;28;20028;-85
2023/01/18 10:58:50;;;;;;;6.68;5.25;;;2.70;78.50;;;;;;5088406;28;20469;-83
2023/01/18 11:01:21;;;;;;;6.35;5.00;;;2.70;78.50;;;;;;5075347;28;20050;-88
2023/01/18 11:03:50;;;;;;;6.65;5.05;;;2.70;78.40;;;;;;5076476;28;20024;-88
2023/01/18 11:06:19;;;;;;;6.38;5.40;;;2.70;78.50;;;;;;5093013;28;20492;-89
2023/01/18 11:08:46;;;;;;;6.68;5.00;;;2.80;78.60;;;;;;5093307;28;20135;-87
2023/01/18 11:14:30;;;;;;;6.25;4.95;;;2.80;78.70;;;;;;5065149;28;20093;-83
2023/01/18 11:16:59;;;;;;;6.80;5.20;;;2.80;78.60;;;;;;5090222;28;20032;-81
2023/01/18 11:19:24;;;;;;;6.18;5.05;;;2.90;78.60;;;;;;5075356;28;20031;-83
2023/01/18 11:21:52;;;;;;;6.57;5.03;;;2.90;78.60;;;;;;5079603;28;20139;-82
2023/01/18 11:24:23;;;;;;;6.68;5.32;;;2.90;78.70;;;;;;5074091;28;20029;-83
2023/01/18 11:27:02;;;;;;;6.50;5.05;;;2.90;78.70;;;;;;5074388;28;20024;-83
2023/01/18 11:29:32;;;;;;;6.60;5.38;;;2.90;78.70;;;;;;5067905;28;20066;-85
2023/01/18 11:32:04;;;;;;;6.45;5.22;;;3.00;78.70;;;;;;5090091;28;20028;-84
2023/01/18 11:34:34;;;;;;;7.25;5.18;;;3.00;78.80;;;;;;5058415;28;20118;-84
2023/01/18 11:37:01;;;;;;;6.50;5.15;;;3.00;78.70;;;;;;5074368;28;20032;-84
2023/01/18 11:39:34;;;;;;;6.45;4.95;;;3.00;78.70;;;;;;5064287;28;20093;-84
2023/01/18 11:42:22;;;;;;;6.07;4.88;;;3.10;78.80;;;;;;5077354;28;20388;-84
2023/01/18 11:45:13;;;;;;;6.93;5.20;;;3.10;78.80;;;;;;5059515;28;20031;-84
2023/01/18 11:47:57;;;;;;;6.43;4.95;;;3.10;78.90;;;;;;5073954;28;20047;-85
2023/01/18 11:50:44;;;;;;;6.82;4.50;;;3.10;78.80;;;;;;5077240;28;20016;-84
2023/01/18 11:53:33;;;;;;;6.60;5.00;;;3.10;78.90;;;;;;5083735;28;20173;-84
2023/01/18 11:56:12;;;;;;;6.30;4.72;;;3.10;78.90;;;;;;5091585;28;20152;-84
2023/01/18 11:58:39;;;;;;;5.47;4.60;;;3.20;79.00;;;;;;5079018;28;20024;-85
2023/01/18 12:01:44;;;;;;;6.60;5.03;;;3.20;78.90;;;;;;5078010;28;20100;-84
2023/01/18 12:04:23;;;;;;;6.30;4.47;;;3.20;79.00;;;;;;5085058;28;20485;-85
2023/01/18 12:06:55;;;;;;;6.45;4.70;;;3.20;79.00;;;;;;5096132;28;20172;-85
2023/01/18 12:09:44;;;;;;;6.03;4.70;;;3.20;79.00;;;;;;5087543;28;20488;-85
2023/01/18 12:12:22;;;;;;;7.20;4.85;;;3.30;79.10;;;;;;5056524;28;20029;-84
2023/01/18 12:15:12;;;;;;;5.45;4.35;;;3.30;79.10;;;;;;5076798;28;20032;-84
2023/01/18 12:18:05;;;;;;;6.15;5.00;;;3.30;79.10;;;;;;5078712;28;20534;-86
2023/01/18 12:21:02;;;;;;;6.57;4.75;;;3.30;79.10;;;;;;5080877;28;20027;-84
2023/01/18 12:23:48;;;;;;;5.85;4.75;;;3.30;79.10;;;;;;5098828;28;20540;-85
2023/01/18 12:26:35;;;;;;;5.82;4.57;;;3.40;79.10;;;;;;5074905;28;20032;-85
2023/01/18 12:29:16;;;;;;;7.05;4.80;;;3.40;79.20;;;;;;5057794;28;20024;-85
2023/01/18 12:32:19;;;;;;;5.97;4.57;;;3.40;79.20;;;;;;5095494;28;20551;-85
2023/01/18 12:35:15;;;;;;;5.88;4.57;;;3.40;79.20;;;;;;5072317;28;20056;-85
2023/01/18 12:38:05;;;;;;;6.07;4.45;;;3.40;79.20;;;;;;5079607;28;20453;-85
2023/01/18 12:40:59;;;;;;;6.85;4.45;;;3.40;79.20;;;;;;5097187;28;20024;-86
2023/01/18 12:43:58;;;;;;;5.00;4.28;;;3.50;79.30;;;;;;5062396;28;20035;-85
2023/01/18 12:46:35;;;;;;;6.63;4.82;;;3.50;79.30;;;;;;5065642;28;20093;-86
2023/01/18 12:49:16;;;;;;;5.80;4.65;;;3.50;79.30;;;;;;5090950;28;20081;-85
2023/01/18 12:51:44;;;;;;;6.18;4.68;;;3.50;79.30;;;;;;5082984;28;20032;-86
2023/01/18 12:54:16;;;;;;;6.38;4.75;;;3.60;79.30;;;;;;5089005;28;20449;-85
2023/01/18 12:56:45;;;;;;;5.47;4.57;;;3.60;79.40;;;;;;5092706;28;20472;-86
2023/01/18 12:59:18;;;;;;;6.50;4.95;;;3.60;79.40;;;;;;5084436;28;20020;-85
2023/01/18 13:01:51;;;;;;;6.43;4.55;;;3.60;79.40;;;;;;5083356;28;20020;-85
2023/01/18 13:04:29;;;;;;;6.38;4.75;;;3.70;79.50;;;;;;5101952;28;20060;-85
2023/01/18 13:06:59;;;;;;;5.30;4.40;;;3.70;79.50;;;;;;5078402;28;20028;-84
2023/01/18 13:09:33;;;;;;;6.43;4.63;;;3.80;79.50;;;;;;5088538;28;20042;-86
2023/01/18 13:12:04;;;;;;;5.95;4.53;;;3.80;79.60;;;;;;5084838;28;20035;-85
2023/01/18 13:15:12;;;;;;;5.38;4.25;;;3.80;79.60;;;;;;5080208;28;20040;-85
2023/01/18 13:17:45;;;;;;;5.13;4.13;;;3.90;79.60;;;;;;5090771;28;20101;-84
2023/01/18 13:20:10;;;;;;;5.75;4.47;;;4.00;79.40;;;;;;5065898;28;20024;-84
2023/01/18 13:22:57;;;;;;;5.60;4.47;;;4.00;79.30;;;;;;5090222;28;20098;-85
2023/01/18 13:25:32;;;;;;;7.28;4.43;;;4.00;79.30;;;;;;5080419;28;20031;-85
2023/01/18 13:28:04;;;;;;;5.72;4.30;;;4.00;79.20;;;;;;5076526;28;20233;-85
2023/01/18 13:30:32;;;;;;;5.90;4.40;;;4.10;79.30;;;;;;5095554;28;20024;-84
2023/01/18 13:32:59;;;;;;;5.07;4.15;;;4.10;79.30;;;;;;5064628;28;20028;-84
2023/01/18 13:35:32;;;;;;;5.47;4.57;;;4.10;79.20;;;;;;5094559;28;20035;-84
2023/01/18 13:38:12;;;;;;;5.80;4.47;;;4.10;80.00;;;;;;5076645;28;20032;-84
2023/01/18 13:40:41;;;;;;;5.22;4.43;;;4.10;79.50;;;;;;5089273;28;20024;-85
2023/01/18 13:43:28;;;;;;;5.85;4.38;;;4.10;79.50;;;;;;5068177;28;20111;-84
2023/01/18 13:46:14;;;;;;;6.97;4.75;;;4.20;79.70;;;;;;5076264;28;20035;-84
2023/01/18 13:48:53;;;;;;;5.82;4.30;;;4.10;79.60;;;;;;5101600;28;20028;-85
2023/01/18 13:51:40;;;;;;;5.05;3.90;;;4.20;79.70;;;;;;5066096;28;20271;-85
2023/01/18 13:54:20;;;;;;;5.57;4.25;;;4.20;79.80;;;;;;5088866;28;20091;-85
2023/01/18 13:57:04;;;;;;;4.30;3.65;;;4.20;79.70;;;;;;5085942;28;20034;-83